Time;durP1;ratioP1;P1;durP2;ratioP2;P2;SDS_P1;SDS_P2;PMS_P1;PMS_P2;Temp;Humidity;BMP_temperature;BMP_pressure;BME280_temperature;BME280_humidity;BME280_pressure;Samples;Min_cycle;Max_cycle;Signal;HPM_P1;HPM_P2
2022/05/20 00:03:21;;;;;;;15.80;14.20;;;20.70;99.90;;;;;;4763324;30;20473;-85
2022/05/20 00:06:14;;;;;;;18.20;16.40;;;20.60;99.90;;;;;;4761059;30;20473;-84
2022/05/20 00:08:50;;;;;;;18.47;16.73;;;20.60;99.90;;;;;;4798338;29;20528;-84
2022/05/20 00:11:44;;;;;;;17.90;16.27;;;20.50;99.90;;;;;;4841743;29;20576;-84
2022/05/20 00:14:24;;;;;;;17.83;16.10;;;20.60;99.90;;;;;;4841538;29;20461;-85
2022/05/20 00:17:11;;;;;;;;;;;;;;;;;;;;;
2022/05/20 00:20:23;;;;;;;18.83;16.87;;;20.50;99.90;;;;;;4845949;29;20464;-85
2022/05/20 00:23:42;;;;;;;17.83;16.00;;;20.50;99.90;;;;;;4846174;29;20438;-84
2022/05/20 00:26:34;;;;;;;18.73;16.83;;;20.60;99.90;;;;;;4843605;29;20513;-85
2022/05/20 00:29:22;;;;;;;17.90;16.10;;;20.50;99.90;;;;;;4841043;29;20602;-83
2022/05/20 00:32:10;;;;;;;;;;;;;;;;;;;;;
2022/05/20 00:34:56;;;;;;;18.50;16.80;;;20.50;99.90;;;;;;4832175;29;21536;-84
2022/05/20 00:37:57;;;;;;;17.57;16.00;;;20.40;99.90;;;;;;4860227;29;20470;-84
2022/05/20 00:40:33;;;;;;;17.87;15.97;;;20.50;99.90;;;;;;4845799;29;20487;-85
2022/05/20 00:43:22;;;;;;;19.13;17.33;;;20.50;99.90;;;;;;4858579;29;20480;-84
2022/05/20 00:46:39;;;;;;;18.23;16.50;;;20.50;99.90;;;;;;4858946;29;20481;-86
2022/05/20 00:49:26;;;;;;;17.53;15.73;;;20.50;99.90;;;;;;4841393;29;20476;-84
2022/05/20 00:52:16;;;;;;;19.37;17.57;;;20.50;99.90;;;;;;4844779;29;21092;-87
2022/05/20 00:54:49;;;;;;;18.90;16.90;;;20.50;99.90;;;;;;4862800;29;20463;-86
2022/05/20 00:57:44;;;;;;;19.97;18.00;;;20.40;99.90;;;;;;4844221;29;20465;-83
2022/05/20 01:00:42;;;;;;;19.30;17.37;;;20.20;99.90;;;;;;4863140;29;20458;-85
2022/05/20 01:03:49;;;;;;;20.17;17.47;;;20.20;99.90;;;;;;4849338;29;20461;-84
2022/05/20 01:06:30;;;;;;;18.67;16.80;;;20.10;99.90;;;;;;4848286;29;20484;-86
2022/05/20 01:09:31;;;;;;;18.87;16.97;;;20.10;99.90;;;;;;4848441;29;20514;-86
2022/05/20 01:12:08;;;;;;;19.07;17.07;;;20.20;99.90;;;;;;4848811;29;20565;-82
2022/05/20 01:15:37;;;;;;;18.53;16.73;;;20.30;99.90;;;;;;4822332;29;20473;-83
2022/05/20 01:18:29;;;;;;;16.50;14.60;;;20.20;99.90;;;;;;4846558;29;20470;-84
2022/05/20 01:21:06;;;;;;;16.90;15.30;;;20.20;99.90;;;;;;4843585;29;20466;-83
2022/05/20 01:23:40;;;;;;;16.20;14.57;;;20.20;99.90;;;;;;4844472;29;20486;-84
2022/05/20 01:26:48;;;;;;;16.70;15.10;;;20.20;99.90;;;;;;4839825;29;20482;-83
2022/05/20 01:29:35;;;;;;;17.93;16.10;;;20.30;99.90;;;;;;4857195;29;20479;-84
2022/05/20 01:32:26;;;;;;;20.10;15.73;;;20.50;99.90;;;;;;4842359;29;20607;-84
2022/05/20 01:35:53;;;;;;;16.67;15.00;;;20.40;99.90;;;;;;4847661;29;20543;-84
2022/05/20 01:38:27;;;;;;;16.47;14.83;;;20.30;99.90;;;;;;4842678;29;20823;-84
2022/05/20 01:41:32;;;;;;;16.53;14.73;;;20.30;99.90;;;;;;4855374;29;20469;-84
2022/05/20 01:44:34;;;;;;;17.40;15.60;;;20.30;99.90;;;;;;4844384;29;20454;-83
2022/05/20 01:47:32;;;;;;;19.27;15.97;;;20.10;99.90;;;;;;4844300;29;20906;-84
2022/05/20 01:50:33;;;;;;;18.30;15.83;;;20.10;99.90;;;;;;4842581;29;20813;-84
2022/05/20 01:53:48;;;;;;;18.00;16.17;;;20.10;99.90;;;;;;4848508;29;20437;-84
2022/05/20 01:56:31;;;;;;;17.07;15.37;;;20.20;99.90;;;;;;4842896;29;20480;-84
2022/05/20 01:59:31;;;;;;;18.23;16.33;;;20.10;99.90;;;;;;4859897;29;20469;-85
2022/05/20 02:02:28;;;;;;;19.00;17.17;;;20.20;99.90;;;;;;4863664;29;20470;-86
2022/05/20 02:05:24;;;;;;;18.77;16.90;;;20.50;99.80;;;;;;4860248;29;20469;-87
2022/05/20 02:08:24;;;;;;;17.90;16.20;;;20.30;99.90;;;;;;4863086;29;20442;-87
2022/05/20 02:11:39;;;;;;;18.03;16.33;;;20.10;99.90;;;;;;4852223;29;20564;-85
2022/05/20 02:14:44;;;;;;;22.10;17.63;;;20.10;99.90;;;;;;4799949;29;20475;-83
2022/05/20 02:17:53;;;;;;;19.27;17.37;;;19.90;99.90;;;;;;4810546;29;20489;-84
2022/05/20 02:20:50;;;;;;;18.70;16.10;;;19.90;99.90;;;;;;4856015;29;20466;-82
2022/05/20 02:23:31;;;;;;;17.97;16.27;;;19.90;99.90;;;;;;4841843;29;20479;-83
2022/05/20 02:26:33;;;;;;;17.17;15.47;;;19.90;99.90;;;;;;4847012;29;20478;-86
2022/05/20 02:32:58;;;;;;;20.90;18.67;;;20.30;99.90;;;;;;4849694;29;20511;-83
2022/05/20 02:35:32;;;;;;;20.20;17.70;;;20.40;99.90;;;;;;4855364;29;20488;-84
2022/05/20 02:38:38;;;;;;;19.60;17.67;;;20.40;99.90;;;;;;4854253;29;20458;-83
2022/05/20 02:41:11;;;;;;;20.30;18.17;;;20.40;99.90;;;;;;4849032;29;20473;-85
2022/05/20 02:43:48;;;;;;;18.60;16.90;;;20.30;99.90;;;;;;4844522;29;20470;-84
2022/05/20 02:46:29;;;;;;;19.33;17.10;;;20.10;99.90;;;;;;4838719;29;20486;-86
2022/05/20 02:49:00;;;;;;;20.50;18.37;;;20.30;99.90;;;;;;4844105;29;20536;-84
2022/05/20 02:52:16;;;;;;;23.77;19.23;;;20.40;99.90;;;;;;4853263;29;20562;-84
2022/05/20 02:55:01;;;;;;;20.07;17.97;;;20.10;99.90;;;;;;4853645;29;20497;-86
2022/05/20 02:57:36;;;;;;;22.17;19.87;;;20.00;99.90;;;;;;4860511;29;20786;-85
2022/05/20 03:06:10;;;;;;;23.47;20.90;;;20.60;99.90;;;;;;4857821;29;20472;-84
2022/05/20 03:08:54;;;;;;;24.13;21.60;;;20.50;99.90;;;;;;4857671;29;20537;-87
2022/05/20 03:11:27;;;;;;;25.70;19.90;;;20.20;99.90;;;;;;4855070;29;20480;-86
2022/05/20 03:14:32;;;;;;;21.47;19.13;;;20.00;99.90;;;;;;4847944;29;20730;-84
2022/05/20 03:17:06;;;;;;;24.13;21.00;;;19.90;99.90;;;;;;4854603;29;20589;-86
2022/05/20 03:20:15;;;;;;;22.90;20.43;;;20.00;99.90;;;;;;4852302;29;20920;-85
2022/05/20 03:22:55;;;;;;;23.73;21.00;;;20.00;99.90;;;;;;4844975;29;20461;-83
2022/05/20 03:25:27;;;;;;;23.13;20.80;;;20.10;99.90;;;;;;4848781;29;20495;-87
2022/05/20 03:28:20;;;;;;;22.57;20.23;;;20.30;99.90;;;;;;4848407;29;20495;-84
2022/05/20 03:31:06;;;;;;;22.83;20.53;;;20.10;99.90;;;;;;4846303;29;20470;-84
2022/05/20 03:33:42;;;;;;;23.67;21.33;;;19.90;99.90;;;;;;4841253;29;21048;-84
2022/05/20 03:36:22;;;;;;;24.47;21.70;;;19.90;99.90;;;;;;4844946;29;20484;-87
2022/05/20 03:39:20;;;;;;;23.23;20.73;;;20.00;99.90;;;;;;4841569;29;20458;-84
2022/05/20 03:42:29;;;;;;;27.50;22.27;;;20.10;99.90;;;;;;4842806;29;20566;-86
2022/05/20 03:45:09;;;;;;;26.60;21.60;;;20.30;99.90;;;;;;4841865;29;20459;-83
2022/05/20 03:47:46;;;;;;;28.23;24.27;;;20.30;99.90;;;;;;4844363;29;20474;-86
2022/05/20 03:50:31;;;;;;;25.47;22.20;;;20.20;99.90;;;;;;4846283;29;20952;-85
2022/05/20 03:53:03;;;;;;;25.77;23.03;;;20.20;99.90;;;;;;4850309;29;20489;-84
2022/05/20 03:55:43;;;;;;;23.80;21.40;;;20.10;99.90;;;;;;4865762;29;20458;-86
2022/05/20 03:58:22;;;;;;;26.13;23.33;;;20.00;99.90;;;;;;4849339;29;20458;-84
2022/05/20 04:04:39;;;;;;;25.57;22.90;;;19.90;99.90;;;;;;4846225;29;20460;-84
2022/05/20 04:07:38;;;;;;;28.67;22.60;;;20.00;99.90;;;;;;4838611;29;20583;-81
2022/05/20 04:10:44;;;;;;;25.77;23.07;;;20.00;99.90;;;;;;4833643;29;21516;-83
2022/05/20 04:14:02;;;;;;;26.90;23.50;;;19.90;99.90;;;;;;4830305;29;20451;-82
2022/05/20 04:16:44;;;;;;;29.77;23.63;;;19.80;99.90;;;;;;4834749;29;20486;-85
2022/05/20 04:19:32;;;;;;;26.20;23.30;;;20.00;99.90;;;;;;4841989;29;21335;-85
2022/05/20 04:22:42;;;;;;;27.37;24.13;;;20.10;99.90;;;;;;4839488;29;20482;-85
2022/05/20 04:25:36;;;;;;;27.73;24.67;;;20.10;99.90;;;;;;4840354;29;20566;-87
2022/05/20 04:31:31;;;;;;;27.33;24.53;;;20.00;99.90;;;;;;4834294;29;21090;-83
2022/05/20 04:34:24;;;;;;;27.50;23.67;;;20.00;99.90;;;;;;4788145;29;20540;-85
2022/05/20 04:37:38;;;;;;;28.03;25.00;;;20.00;99.90;;;;;;4786180;29;20492;-83
2022/05/20 04:40:32;;;;;;;27.10;24.20;;;20.10;99.90;;;;;;4791765;29;20467;-86
2022/05/20 04:49:50;;;;;;;26.43;23.73;;;19.90;99.90;;;;;;4816890;29;21253;-88
2022/05/20 04:52:42;;;;;;;31.57;28.47;;;19.90;99.90;;;;;;4811465;29;20491;-83
2022/05/20 04:58:51;;;;;;;26.07;22.90;;;20.00;99.90;;;;;;4806054;29;20520;-83
2022/05/20 05:02:02;;;;;;;31.70;23.47;;;20.00;99.90;;;;;;4799730;29;20445;-82
2022/05/20 05:04:59;;;;;;;29.77;24.13;;;20.00;99.90;;;;;;4836685;29;20470;-83
2022/05/20 05:08:01;;;;;;;25.77;23.27;;;20.10;99.90;;;;;;4792064;29;20455;-84
2022/05/20 05:11:00;;;;;;;28.37;23.30;;;20.10;99.90;;;;;;4797590;29;20551;-85
2022/05/20 05:13:35;;;;;;;24.50;21.90;;;20.20;99.90;;;;;;4788078;29;20476;-87
2022/05/20 05:16:34;;;;;;;28.43;24.47;;;20.20;99.90;;;;;;4790358;29;20626;-84
2022/05/20 05:19:33;;;;;;;28.63;25.33;;;20.50;99.90;;;;;;4803688;29;20977;-85
2022/05/20 05:22:08;;;;;;;26.80;23.80;;;20.70;99.90;;;;;;4791540;29;20463;-85
2022/05/20 05:24:54;;;;;;;31.03;25.90;;;20.90;99.90;;;;;;4792382;29;20475;-85
2022/05/20 05:27:39;;;;;;;27.53;24.20;;;21.00;99.90;;;;;;4784327;29;20494;-83
2022/05/20 05:30:15;;;;;;;26.63;23.73;;;20.80;99.90;;;;;;4801677;29;20590;-85
2022/05/20 05:33:10;;;;;;;28.63;25.60;;;20.70;99.90;;;;;;4801999;29;20475;-85
2022/05/20 05:36:11;;;;;;;31.63;25.07;;;21.00;99.90;;;;;;4812030;29;20578;-86
2022/05/20 05:38:58;;;;;;;27.80;25.00;;;20.90;99.90;;;;;;4806480;29;20487;-86
2022/05/20 05:41:43;;;;;;;26.40;23.80;;;20.70;99.90;;;;;;4812315;29;20545;-84
2022/05/20 05:44:23;;;;;;;26.87;23.73;;;20.80;99.90;;;;;;4852305;29;20474;-86
2022/05/20 05:47:21;;;;;;;28.87;24.97;;;20.60;99.90;;;;;;4842660;29;20564;-85
2022/05/20 05:50:03;;;;;;;29.60;25.20;;;20.80;99.90;;;;;;4855016;29;20471;-86
2022/05/20 05:52:35;;;;;;;30.80;25.97;;;21.10;99.90;;;;;;4844538;29;20511;-83
2022/05/20 05:55:03;;;;;;;30.63;26.93;;;21.10;99.90;;;;;;4846959;29;20469;-85
2022/05/20 05:57:49;;;;;;;27.77;24.30;;;21.10;99.90;;;;;;4845646;29;20506;-83
2022/05/20 06:00:40;;;;;;;27.80;24.87;;;20.90;99.90;;;;;;4854441;29;20458;-84
2022/05/20 06:03:25;;;;;;;30.43;26.30;;;21.00;99.90;;;;;;4843113;29;20523;-84
2022/05/20 06:06:18;;;;;;;31.17;26.10;;;21.00;99.90;;;;;;4842417;29;20903;-86
2022/05/20 06:08:47;;;;;;;34.87;27.57;;;20.90;99.90;;;;;;4842603;29;20509;-84
2022/05/20 06:11:40;;;;;;;36.23;28.37;;;20.90;99.90;;;;;;4842867;29;20466;-82
2022/05/20 06:14:16;;;;;;;31.93;27.57;;;20.80;99.90;;;;;;4840793;29;20458;-83
2022/05/20 06:16:50;;;;;;;33.27;28.40;;;20.70;99.90;;;;;;4841965;29;20596;-85
2022/05/20 06:19:29;;;;;;;31.07;27.70;;;20.70;99.90;;;;;;4853921;29;20486;-85
2022/05/20 06:22:03;;;;;;;35.47;28.87;;;20.70;99.90;;;;;;4855397;29;20522;-84
2022/05/20 06:24:56;;;;;;;31.03;27.53;;;20.80;99.90;;;;;;4834081;29;20473;-86
2022/05/20 06:27:27;;;;;;;32.17;26.27;;;20.60;99.90;;;;;;4839861;29;20463;-82
2022/05/20 06:30:26;;;;;;;30.93;27.57;;;20.80;99.90;;;;;;4834730;29;20473;-85
2022/05/20 06:33:05;;;;;;;30.07;26.63;;;20.80;99.90;;;;;;4831710;29;20498;-84
2022/05/20 06:42:20;;;;;;;31.87;25.80;;;20.80;99.90;;;;;;4796804;29;20450;-83
2022/05/20 06:45:38;;;;;;;34.70;28.63;;;20.70;99.90;;;;;;4828358;29;20485;-85
2022/05/20 06:53:19;;;;;;;35.43;30.00;;;20.20;99.90;;;;;;4803302;29;20499;-84
2022/05/20 06:56:27;;;;;;;34.73;30.20;;;20.50;99.90;;;;;;4841772;29;20489;-84
2022/05/20 06:59:41;;;;;;;;;;;;;;;;;;;;;
2022/05/20 07:02:44;;;;;;;;;;;;;;;;;;;;;
2022/05/20 07:05:27;;;;;;;37.90;33.50;;;20.30;99.90;;;;;;4828886;29;20556;-84
2022/05/20 07:07:56;;;;;;;45.10;35.90;;;20.30;99.90;;;;;;4838977;29;20481;-85
2022/05/20 07:11:02;;;;;;;45.83;36.70;;;20.30;99.90;;;;;;4841147;29;20472;-86
2022/05/20 07:13:37;;;;;;;40.70;35.10;;;20.30;99.90;;;;;;4842538;29;20486;-82
2022/05/20 07:16:43;;;;;;;42.10;37.00;;;20.20;99.90;;;;;;4843540;29;20554;-84
2022/05/20 07:19:42;;;;;;;48.10;38.67;;;20.30;99.90;;;;;;4842890;29;20768;-82
2022/05/20 07:22:09;;;;;;;49.07;38.97;;;20.20;99.90;;;;;;4861908;29;20540;-85
2022/05/20 07:25:15;;;;;;;48.00;38.00;;;20.30;99.90;;;;;;4847524;29;20874;-84
2022/05/20 07:27:56;;;;;;;53.30;39.90;;;20.30;99.90;;;;;;4838297;29;20485;-84
2022/05/20 07:30:49;;;;;;;43.13;34.17;;;20.30;99.90;;;;;;4843287;29;20457;-85
2022/05/20 07:33:43;;;;;;;36.27;30.67;;;20.30;99.90;;;;;;4850428;29;20487;-87
2022/05/20 07:36:24;;;;;;;40.13;31.70;;;20.40;99.90;;;;;;4850124;29;20490;-84
2022/05/20 07:38:53;;;;;;;40.47;32.23;;;20.40;99.90;;;;;;4846914;29;20545;-85
2022/05/20 07:41:23;;;;;;;36.13;32.00;;;20.70;99.90;;;;;;4843499;29;20541;-87
2022/05/20 07:43:50;;;;;;;34.27;27.33;;;20.90;99.90;;;;;;4845819;29;21770;-84
2022/05/20 07:46:17;;;;;;;34.50;26.43;;;20.90;99.90;;;;;;4849558;29;20470;-87
2022/05/20 07:48:47;;;;;;;32.87;27.60;;;21.00;99.90;;;;;;4845584;29;20477;-85
2022/05/20 07:51:24;;;;;;;31.37;24.87;;;20.80;99.90;;;;;;4844542;29;20462;-85
2022/05/20 07:54:13;;;;;;;28.73;25.47;;;20.80;99.90;;;;;;4844897;29;21165;-86
2022/05/20 07:56:49;;;;;;;33.77;25.57;;;20.60;99.90;;;;;;4844701;29;20482;-84
2022/05/20 07:59:19;;;;;;;33.70;25.90;;;20.70;99.90;;;;;;4837404;29;20492;-85
2022/05/20 08:02:17;;;;;;;32.70;26.23;;;20.90;99.90;;;;;;4812432;29;20451;-86
2022/05/20 08:05:00;;;;;;;35.17;27.17;;;20.70;99.90;;;;;;4843554;29;20557;-84
2022/05/20 08:07:44;;;;;;;32.03;27.40;;;20.90;99.90;;;;;;4853072;29;20497;-84
2022/05/20 08:10:19;;;;;;;33.57;26.77;;;21.00;99.90;;;;;;4853075;29;21763;-86
2022/05/20 08:12:46;;;;;;;31.07;25.23;;;21.20;99.90;;;;;;4853281;29;20494;-84
2022/05/20 08:15:15;;;;;;;30.83;24.40;;;21.50;99.90;;;;;;4839542;29;20478;-86
2022/05/20 08:17:43;;;;;;;31.03;26.07;;;22.30;99.90;;;;;;4839861;29;20458;-86
2022/05/20 08:20:22;;;;;;;28.67;23.20;;;22.40;99.90;;;;;;4840702;29;20524;-84
2022/05/20 08:23:06;;;;;;;31.20;26.50;;;22.40;99.90;;;;;;4841067;29;20557;-84
2022/05/20 08:25:45;;;;;;;33.30;27.50;;;22.10;99.90;;;;;;4840768;29;20486;-83
2022/05/20 08:28:59;;;;;;;33.40;24.70;;;21.90;99.90;;;;;;4839687;29;20466;-85
2022/05/20 08:31:26;;;;;;;26.93;23.47;;;21.60;99.90;;;;;;4838205;29;20562;-85
2022/05/20 08:33:56;;;;;;;29.03;23.93;;;21.80;99.90;;;;;;4841338;29;20585;-84
2022/05/20 08:36:29;;;;;;;27.50;23.93;;;22.00;99.90;;;;;;4841601;29;20490;-86
2022/05/20 08:38:56;;;;;;;28.80;21.60;;;22.10;99.90;;;;;;4850295;29;20451;-87
2022/05/20 08:41:32;;;;;;;27.13;22.67;;;22.30;99.90;;;;;;4846636;29;20522;-83
2022/05/20 08:44:04;;;;;;;25.23;22.10;;;22.20;99.90;;;;;;4843310;29;20450;-84
2022/05/20 08:46:30;;;;;;;28.30;22.13;;;22.30;99.90;;;;;;4839011;29;20488;-85
2022/05/20 08:48:58;;;;;;;25.50;22.20;;;22.20;99.90;;;;;;4854037;29;20505;-86
2022/05/20 08:51:30;;;;;;;24.60;22.00;;;22.30;99.90;;;;;;4837444;29;20470;-85
2022/05/20 08:54:04;;;;;;;24.53;19.97;;;22.50;99.90;;;;;;4840628;29;20502;-86
2022/05/20 08:56:55;;;;;;;24.20;20.27;;;23.50;99.70;;;;;;4838545;29;20506;-84
2022/05/20 08:59:22;;;;;;;22.53;20.13;;;24.00;98.50;;;;;;4839414;29;20445;-84
2022/05/20 09:01:52;;;;;;;22.00;19.70;;;24.30;97.50;;;;;;4841442;29;20470;-86
2022/05/20 09:04:25;;;;;;;23.20;19.37;;;24.40;97.70;;;;;;4842452;29;20489;-87
2022/05/20 09:07:23;;;;;;;22.83;20.43;;;24.30;96.60;;;;;;4855854;29;20683;-84
2022/05/20 09:09:55;;;;;;;21.47;19.27;;;23.70;97.60;;;;;;4838353;29;20534;-85
2022/05/20 09:12:33;;;;;;;20.77;18.57;;;23.40;98.80;;;;;;4839599;29;20494;-85
2022/05/20 09:18:27;;;;;;;19.43;17.30;;;24.80;97.80;;;;;;4837737;29;20469;-86
2022/05/20 09:21:00;;;;;;;20.40;18.10;;;25.80;95.20;;;;;;4839601;29;20468;-86
2022/05/20 09:23:33;;;;;;;19.37;17.17;;;27.50;91.90;;;;;;4838579;29;20490;-84
2022/05/20 09:26:08;;;;;;;18.23;16.53;;;28.90;85.90;;;;;;4838657;29;20490;-84
2022/05/20 09:29:16;;;;;;;18.07;16.27;;;27.70;87.70;;;;;;4828050;29;21063;-85
2022/05/20 09:32:05;;;;;;;17.97;16.20;;;26.20;91.50;;;;;;4806615;29;21139;-86
2022/05/20 09:35:25;;;;;;;15.93;14.50;;;27.80;90.30;;;;;;4806413;29;20471;-84
2022/05/20 09:37:56;;;;;;;14.73;13.20;;;28.40;85.80;;;;;;4833461;29;20456;-87
2022/05/20 09:40:34;;;;;;;13.80;12.40;;;28.20;84.60;;;;;;4836361;29;20465;-85
2022/05/20 09:43:28;;;;;;;13.50;12.20;;;27.30;87.50;;;;;;4840012;29;20551;-86
2022/05/20 09:46:00;;;;;;;13.73;12.30;;;26.80;89.90;;;;;;4841883;29;20521;-86
2022/05/20 09:49:21;;;;;;;14.70;13.40;;;26.50;90.50;;;;;;4837390;29;20455;-87
2022/05/20 09:52:00;;;;;;;13.33;12.07;;;27.00;90.50;;;;;;4830015;29;20473;-84
2022/05/20 09:54:37;;;;;;;12.53;11.20;;;27.80;88.10;;;;;;4837886;29;20597;-84
2022/05/20 09:57:19;;;;;;;13.20;11.97;;;28.90;82.40;;;;;;4839811;29;20496;-84
2022/05/20 10:00:17;;;;;;;11.80;10.90;;;28.80;81.40;;;;;;4839272;29;20479;-85
2022/05/20 10:03:36;;;;;;;11.30;10.20;;;29.70;79.50;;;;;;4820300;29;21171;-85
2022/05/20 10:06:29;;;;;;;11.40;10.40;;;30.40;76.10;;;;;;4839294;29;20505;-86
2022/05/20 10:09:25;;;;;;;11.03;10.13;;;30.10;76.60;;;;;;4838759;29;20761;-85
2022/05/20 10:12:40;;;;;;;9.40;8.70;;;29.60;76.10;;;;;;4837504;29;20508;-86
2022/05/20 10:15:13;;;;;;;8.47;7.77;;;28.60;81.00;;;;;;4835521;29;20532;-87
2022/05/20 10:21:46;;;;;;;8.70;8.00;;;29.30;77.90;;;;;;4843664;29;20530;-86
2022/05/20 10:24:41;;;;;;;7.67;7.10;;;28.80;78.80;;;;;;4837481;29;21912;-84
2022/05/20 10:27:16;;;;;;;8.20;7.43;;;28.10;82.90;;;;;;4850554;29;22148;-84
2022/05/20 10:33:27;;;;;;;6.53;6.13;;;30.70;75.00;;;;;;4855487;29;20497;-86
2022/05/20 10:36:12;;;;;;;7.37;6.80;;;30.50;74.40;;;;;;4852190;29;20527;-86
2022/05/20 10:39:25;;;;;;;8.10;7.40;;;30.00;74.90;;;;;;4842312;29;20550;-83
2022/05/20 10:43:10;;;;;;;8.60;7.90;;;29.50;76.70;;;;;;4849232;29;20446;-86
2022/05/20 10:49:33;;;;;;;7.90;7.20;;;29.80;75.80;;;;;;4841130;29;20457;-86
2022/05/20 10:52:47;;;;;;;8.87;8.13;;;29.60;77.80;;;;;;4843716;29;20986;-86
2022/05/20 10:55:34;;;;;;;8.90;8.20;;;29.70;77.90;;;;;;4843175;29;21529;-88
2022/05/20 11:02:08;;;;;;;8.67;7.97;;;28.80;79.30;;;;;;4844044;29;20998;-87
2022/05/20 11:04:54;;;;;;;11.10;8.13;;;27.70;84.50;;;;;;4842406;29;20473;-86
2022/05/20 11:07:42;;;;;;;9.37;8.57;;;27.60;86.80;;;;;;4877659;24;20511;-86
2022/05/20 11:10:36;;;;;;;8.77;7.83;;;27.30;87.00;;;;;;4883904;29;20487;-86
2022/05/20 11:13:10;;;;;;;9.70;8.87;;;27.00;89.90;;;;;;4881851;29;20489;-87
2022/05/20 11:16:33;;;;;;;8.87;8.10;;;27.50;89.00;;;;;;4894161;29;20575;-85
2022/05/20 11:19:12;;;;;;;8.37;7.60;;;27.50;88.30;;;;;;4837700;29;20570;-87
2022/05/20 11:22:19;;;;;;;9.13;8.43;;;27.30;89.30;;;;;;4835959;29;20470;-91
2022/05/20 11:25:37;;;;;;;10.37;9.27;;;27.60;88.80;;;;;;4832709;29;20506;-89
2022/05/20 11:28:34;;;;;;;9.93;9.07;;;27.50;88.90;;;;;;4854165;29;20470;-89
2022/05/20 11:32:09;;;;;;;9.27;8.57;;;27.30;89.30;;;;;;4881736;29;20567;-90
2022/05/20 11:34:59;;;;;;;9.70;8.90;;;26.90;90.70;;;;;;4884808;29;20472;-86
2022/05/20 11:38:15;;;;;;;9.60;8.80;;;26.40;91.70;;;;;;4865852;24;20510;-87
2022/05/20 11:41:48;;;;;;;9.80;8.80;;;26.40;92.70;;;;;;4832212;29;21124;-86
2022/05/20 11:45:09;;;;;;;10.93;10.00;;;26.40;92.80;;;;;;4792127;29;20449;-87
2022/05/20 11:48:17;;;;;;;9.70;8.90;;;26.40;93.10;;;;;;4819485;29;20551;-86
2022/05/20 11:50:50;;;;;;;9.40;8.57;;;26.50;92.80;;;;;;4819418;29;20467;-87
2022/05/20 11:53:38;;;;;;;9.07;8.20;;;26.60;92.80;;;;;;4820122;29;20566;-88
2022/05/20 11:56:22;;;;;;;10.33;9.43;;;26.70;92.80;;;;;;4831780;29;20665;-85
2022/05/20 11:59:07;;;;;;;8.77;7.97;;;26.50;93.10;;;;;;4822962;29;20597;-86
2022/05/20 12:01:38;;;;;;;9.57;8.80;;;26.30;93.80;;;;;;4819495;29;20554;-86
2022/05/20 12:04:12;;;;;;;8.23;7.50;;;26.60;93.50;;;;;;4821689;29;20475;-87
2022/05/20 12:07:28;;;;;;;7.60;7.10;;;26.70;93.60;;;;;;4833169;29;20507;-86
2022/05/20 12:10:14;;;;;;;7.77;7.27;;;26.80;92.90;;;;;;4805480;29;20474;-85
2022/05/20 12:13:19;;;;;;;7.67;7.10;;;26.50;93.20;;;;;;4817852;29;20467;-85
2022/05/20 12:16:18;;;;;;;8.60;7.90;;;26.50;93.40;;;;;;4817232;29;20480;-87
2022/05/20 12:28:23;;;;;;;10.20;9.20;;;26.20;94.90;;;;;;4822679;29;20836;-85
2022/05/20 12:31:18;;;;;;;10.90;9.23;;;26.00;95.50;;;;;;4833121;29;20897;-87
2022/05/20 12:33:59;;;;;;;11.20;10.30;;;25.90;96.30;;;;;;4831016;29;20558;-88
2022/05/20 12:36:29;;;;;;;12.53;11.23;;;25.70;97.60;;;;;;4841934;29;20493;-86
2022/05/20 12:39:08;;;;;;;12.40;11.30;;;25.40;98.70;;;;;;4823061;29;20555;-88
2022/05/20 12:41:53;;;;;;;12.10;10.90;;;25.10;99.90;;;;;;4837956;29;20977;-87
2022/05/20 12:44:20;;;;;;;12.23;10.97;;;24.90;99.90;;;;;;4820476;29;20908;-87
2022/05/20 12:47:05;;;;;;;11.97;10.87;;;24.90;99.90;;;;;;4821068;29;20490;-87
2022/05/20 12:49:47;;;;;;;11.17;10.17;;;24.90;99.90;;;;;;4821847;29;20524;-86
2022/05/20 12:52:26;;;;;;;10.87;9.97;;;25.10;99.90;;;;;;4823256;29;20466;-87
2022/05/20 12:54:59;;;;;;;11.70;10.70;;;25.20;99.90;;;;;;4820394;29;20478;-85
2022/05/20 12:57:32;;;;;;;14.00;10.53;;;25.20;99.90;;;;;;4833887;29;20978;-87
2022/05/20 13:00:12;;;;;;;10.27;9.30;;;25.30;99.90;;;;;;4821079;29;20563;-87
2022/05/20 13:02:54;;;;;;;11.63;10.43;;;25.40;99.90;;;;;;4841626;29;21890;-86
2022/05/20 13:05:39;;;;;;;13.83;11.40;;;25.20;99.90;;;;;;4828905;29;21399;-86
2022/05/20 13:08:17;;;;;;;10.47;9.60;;;25.10;99.90;;;;;;4831840;29;20475;-87
2022/05/20 13:11:05;;;;;;;11.80;10.90;;;25.20;99.90;;;;;;4843558;29;20456;-85
2022/05/20 13:13:32;;;;;;;11.90;10.13;;;25.20;99.90;;;;;;4844078;29;20498;-87
2022/05/20 13:16:10;;;;;;;12.57;11.47;;;25.10;99.90;;;;;;4828992;29;20507;-86
2022/05/20 13:19:06;;;;;;;11.57;10.37;;;25.10;99.90;;;;;;4832925;29;20547;-90
2022/05/20 13:25:06;;;;;;;13.63;12.30;;;25.30;99.90;;;;;;4834180;29;20551;-88
2022/05/20 13:27:45;;;;;;;10.37;9.47;;;25.60;99.90;;;;;;4814305;29;20454;-88
2022/05/20 13:30:43;;;;;;;9.97;9.17;;;25.80;99.90;;;;;;4852798;29;20487;-90
2022/05/20 13:33:12;;;;;;;8.07;7.10;;;25.70;99.90;;;;;;4976910;23;20555;-89
2022/05/20 13:35:53;;;;;;;8.43;7.73;;;25.90;99.60;;;;;;4856262;29;20472;-90
2022/05/20 13:38:32;;;;;;;7.80;5.90;;;26.00;98.70;;;;;;4841210;29;20462;-86
2022/05/20 13:41:21;;;;;;;6.50;6.00;;;26.10;97.80;;;;;;4842782;29;20550;-88
2022/05/20 13:44:01;;;;;;;7.37;6.43;;;26.10;97.00;;;;;;4851351;29;20459;-87
2022/05/20 13:49:28;;;;;;;7.13;6.63;;;26.10;96.90;;;;;;4854006;29;20472;-87
2022/05/20 13:52:03;;;;;;;6.20;5.70;;;26.10;97.00;;;;;;4865569;29;20491;-86
2022/05/20 13:54:35;;;;;;;6.83;6.17;;;25.90;97.60;;;;;;4836850;29;20500;-84
2022/05/20 13:57:06;;;;;;;6.00;5.10;;;25.90;97.20;;;;;;4841563;29;22229;-84
2022/05/20 13:59:52;;;;;;;6.23;5.57;;;25.90;96.10;;;;;;4836157;29;20466;-86
2022/05/20 14:02:50;;;;;;;6.30;5.70;;;25.70;96.80;;;;;;4836649;29;20470;-86
2022/05/20 14:06:09;;;;;;;4.97;4.57;;;25.40;97.00;;;;;;4864401;29;20486;-87
2022/05/20 14:09:38;;;;;;;4.97;4.43;;;25.30;97.30;;;;;;4834832;29;20454;-86
2022/05/20 14:13:21;;;;;;;4.90;4.50;;;25.20;96.80;;;;;;4850231;29;20484;-87
2022/05/20 14:16:00;;;;;;;5.37;4.43;;;25.10;96.90;;;;;;4837222;29;20489;-83
2022/05/20 14:19:23;;;;;;;4.80;4.40;;;25.10;97.20;;;;;;4850751;29;20523;-86
2022/05/20 14:22:30;;;;;;;5.57;5.07;;;25.00;97.20;;;;;;4825800;29;20507;-88
2022/05/20 14:28:53;;;;;;;;;;;;;;;;;;;;;
2022/05/20 14:32:14;;;;;;;5.97;5.37;;;25.00;98.40;;;;;;4776414;30;20499;-87
2022/05/20 14:35:27;;;;;;;7.30;5.90;;;24.90;98.70;;;;;;4774594;30;20503;-87
2022/05/20 14:38:17;;;;;;;6.93;5.80;;;24.90;99.20;;;;;;4779695;29;20472;-88
2022/05/20 14:41:15;;;;;;;6.67;6.00;;;25.00;99.10;;;;;;4774898;30;20497;-87
2022/05/20 14:44:29;;;;;;;7.60;6.60;;;25.10;99.20;;;;;;4782901;30;20533;-87
2022/05/20 14:47:44;;;;;;;5.73;5.23;;;25.10;98.50;;;;;;4759526;30;20485;-87
2022/05/20 14:51:04;;;;;;;5.47;5.00;;;25.00;98.60;;;;;;4754641;30;20477;-88
2022/05/20 14:53:48;;;;;;;5.57;5.07;;;25.00;98.60;;;;;;4772079;29;20492;-85
2022/05/20 14:57:19;;;;;;;7.33;5.63;;;25.00;98.60;;;;;;4785701;29;20484;-85
2022/05/20 15:00:11;;;;;;;5.40;4.90;;;24.90;98.70;;;;;;4788372;29;20484;-87
2022/05/20 15:03:15;;;;;;;5.70;5.10;;;25.20;99.20;;;;;;4844165;29;20446;-87
2022/05/20 15:05:43;;;;;;;8.07;7.30;;;25.00;99.70;;;;;;4834824;29;20854;-89
2022/05/20 15:08:28;;;;;;;9.80;6.30;;;24.70;99.90;;;;;;4834570;29;21868;-88
2022/05/20 15:11:40;;;;;;;6.07;5.53;;;24.40;99.90;;;;;;4864529;29;21059;-87
2022/05/20 15:15:06;;;;;;;5.23;4.07;;;24.20;99.90;;;;;;4825941;29;20486;-87
2022/05/20 15:18:07;;;;;;;5.37;4.97;;;23.90;99.90;;;;;;4841836;29;20522;-87
2022/05/20 15:25:01;;;;;;;8.00;5.23;;;23.70;99.90;;;;;;4835147;29;20526;-86
2022/05/20 15:37:38;;;;;;;4.00;3.70;;;23.70;99.90;;;;;;4840410;29;20477;-85
2022/05/20 15:40:36;;;;;;;4.83;4.40;;;23.90;99.90;;;;;;4841449;29;20463;-87
2022/05/20 15:43:12;;;;;;;5.13;4.17;;;23.90;99.90;;;;;;4839950;29;20462;-86
2022/05/20 15:45:45;;;;;;;4.07;3.77;;;23.90;99.90;;;;;;4841059;29;20478;-86
2022/05/20 15:48:26;;;;;;;5.07;4.23;;;23.90;99.90;;;;;;4839207;29;21874;-88
2022/05/20 15:50:58;;;;;;;5.13;4.07;;;23.80;99.90;;;;;;4841017;29;20502;-85
2022/05/20 15:53:30;;;;;;;3.90;3.70;;;23.80;99.90;;;;;;5184747;23;22274;-86
2022/05/20 15:55:58;;;;;;;8.60;4.50;;;23.60;99.90;;;;;;4860695;29;21036;-88
2022/05/20 15:58:29;;;;;;;7.20;5.20;;;23.60;99.90;;;;;;4862954;29;20457;-85
2022/05/20 16:00:58;;;;;;;7.60;4.83;;;23.50;99.90;;;;;;4861576;29;20903;-86